createdAt,value
2023-01-12T00:04:20.555Z,9.35
2023-01-12T00:09:27.055Z,9.07
2023-01-12T00:14:33.396Z,9.82
2023-01-12T00:19:48.529Z,10.25
2023-01-12T00:24:58.730Z,12.43
2023-01-12T00:30:15.794Z,10.63
2023-01-12T00:35:29.335Z,9.63
2023-01-12T00:40:36.695Z,9.90
2023-01-12T00:45:50.348Z,9.55
2023-01-12T00:50:58.621Z,10.93
2023-01-12T00:56:07.249Z,9.77
2023-01-12T01:01:14.693Z,10.87
2023-01-12T01:06:23.309Z,11.13
2023-01-12T01:11:26.255Z,9.80
2023-01-12T01:16:36.628Z,10.10
2023-01-12T01:21:50.959Z,10.40
2023-01-12T01:26:56.853Z,9.50
2023-01-12T01:32:04.016Z,9.95
2023-01-12T01:37:13.567Z,10.30
2023-01-12T01:42:37.009Z,10.27
2023-01-12T01:47:55.465Z,10.02
2023-01-12T01:53:11.719Z,9.57
2023-01-12T01:59:09.796Z,8.73
2023-01-12T02:04:56.000Z,9.05
2023-01-12T02:10:16.025Z,10.73
2023-01-12T02:21:54.672Z,10.20
2023-01-12T02:34:02.524Z,8.63
2023-01-12T02:39:15.564Z,9.83
2023-01-12T02:44:51.120Z,8.73
2023-01-12T02:50:46.694Z,11.13
2023-01-12T02:56:03.463Z,9.68
2023-01-12T03:01:19.070Z,9.80
2023-01-12T03:07:29.379Z,9.03
2023-01-12T03:12:41.997Z,9.07
2023-01-12T03:18:08.556Z,9.37
2023-01-12T03:23:47.212Z,10.02
2023-01-12T03:29:23.842Z,10.05
2023-01-12T03:34:30.047Z,11.37
2023-01-12T03:39:59.797Z,8.32
2023-01-12T03:45:36.321Z,10.23
2023-01-12T03:50:56.767Z,9.55
2023-01-12T03:56:22.272Z,10.43
2023-01-12T04:01:32.607Z,8.63
2023-01-12T04:12:26.028Z,9.87
2023-01-12T04:17:41.299Z,9.48
2023-01-12T04:28:23.987Z,7.70
2023-01-12T04:33:31.409Z,8.35
2023-01-12T04:38:34.654Z,9.33
2023-01-12T04:43:41.396Z,8.27
2023-01-12T04:48:47.199Z,8.45
2023-01-12T04:53:53.523Z,6.93
2023-01-12T04:59:17.123Z,6.97
2023-01-12T05:04:28.865Z,6.80
2023-01-12T05:09:47.706Z,7.15
2023-01-12T05:15:04.623Z,7.63
2023-01-12T05:20:16.385Z,7.50
2023-01-12T05:25:39.111Z,7.68
2023-01-12T05:30:57.501Z,8.50
2023-01-12T05:36:09.281Z,8.27
2023-01-12T05:41:17.528Z,7.88
2023-01-12T05:46:43.901Z,7.97
2023-01-12T05:51:49.165Z,7.13
2023-01-12T05:56:52.273Z,7.70
2023-01-12T06:01:59.413Z,8.52
2023-01-12T06:07:03.026Z,10.00
2023-01-12T06:12:09.790Z,9.77
2023-01-12T06:17:17.552Z,9.77
2023-01-12T06:22:22.001Z,8.30
2023-01-12T06:27:26.934Z,8.68
2023-01-12T06:32:48.063Z,8.93
2023-01-12T06:38:02.143Z,9.23
2023-01-12T06:43:08.137Z,9.98
2023-01-12T06:54:33.275Z,9.40
2023-01-12T07:00:10.542Z,10.82
2023-01-12T07:05:59.512Z,8.30
2023-01-12T07:11:04.312Z,7.93
2023-01-12T07:16:08.246Z,7.80
2023-01-12T07:21:14.614Z,10.05
2023-01-12T07:26:18.640Z,9.65
2023-01-12T07:31:21.414Z,8.13
2023-01-12T07:41:45.421Z,8.30
2023-01-12T07:46:50.166Z,10.00
2023-01-12T07:51:53.503Z,11.70
2023-01-12T07:56:58.295Z,10.57
2023-01-12T08:02:01.833Z,9.63
2023-01-12T08:07:04.179Z,9.50
2023-01-12T08:12:08.990Z,8.98
2023-01-12T08:17:22.285Z,7.20
2023-01-12T08:22:34.236Z,6.87
2023-01-12T08:27:46.870Z,7.72
2023-01-12T08:32:49.725Z,7.37
2023-01-12T08:37:52.298Z,7.90
2023-01-12T08:42:56.581Z,8.77
2023-01-12T08:47:58.988Z,7.80
2023-01-12T08:53:01.753Z,7.38
2023-01-12T08:58:05.387Z,7.63
2023-01-12T09:03:08.124Z,8.73
2023-01-12T09:08:10.592Z,8.70
2023-01-12T09:13:14.800Z,8.50
2023-01-12T09:18:19.684Z,7.03
2023-01-12T09:23:30.331Z,7.73
2023-01-12T09:28:35.375Z,7.75
2023-01-12T09:33:40.766Z,7.43
2023-01-12T09:38:47.411Z,6.80
2023-01-12T09:43:52.047Z,6.60
2023-01-12T09:48:57.635Z,6.53
2023-01-12T09:54:01.089Z,5.72
2023-01-12T09:59:36.342Z,6.10
2023-01-12T10:04:41.730Z,4.63
2023-01-12T10:09:45.064Z,5.13
2023-01-12T10:15:26.071Z,5.37
2023-01-12T10:20:37.479Z,5.10
2023-01-12T10:25:44.900Z,6.25
2023-01-12T10:30:50.984Z,8.10
2023-01-12T10:35:59.480Z,7.05
2023-01-12T10:41:16.305Z,6.00
2023-01-12T10:46:38.559Z,4.30
2023-01-12T10:51:52.978Z,5.60
2023-01-12T10:57:02.598Z,4.77
2023-01-12T11:02:16.505Z,3.80
2023-01-12T11:07:22.114Z,5.37
2023-01-12T11:12:31.091Z,4.50
2023-01-12T11:17:52.540Z,3.97
2023-01-12T11:23:02.241Z,4.40
2023-01-12T11:28:14.009Z,4.57
2023-01-12T11:33:25.051Z,6.03
2023-01-12T11:38:35.898Z,4.57
2023-01-12T11:43:51.306Z,4.78
2023-01-12T11:49:08.001Z,4.63
2023-01-12T11:54:18.438Z,4.97
2023-01-12T11:59:33.319Z,4.40
2023-01-12T12:04:55.578Z,4.73
2023-01-12T12:10:18.168Z,4.28
2023-01-12T12:15:32.920Z,4.03
2023-01-12T12:20:46.717Z,4.43
2023-01-12T12:26:05.030Z,5.80
2023-01-12T12:31:29.520Z,4.57
2023-01-12T12:36:43.027Z,4.60
2023-01-12T12:41:55.951Z,4.30
2023-01-12T12:47:09.613Z,3.70
2023-01-12T12:52:13.963Z,4.13
2023-01-12T12:57:17.608Z,3.83
2023-01-12T13:02:38.913Z,4.28
2023-01-12T13:07:52.635Z,3.80
2023-01-12T13:13:04.230Z,4.43
2023-01-12T13:18:26.669Z,4.47
2023-01-12T13:24:18.422Z,3.40
2023-01-12T13:29:43.746Z,3.63
2023-01-12T13:34:48.186Z,3.15
2023-01-12T13:40:03.852Z,2.97
2023-01-12T13:45:11.557Z,4.03
2023-01-12T13:50:18.890Z,3.07
2023-01-12T13:55:26.350Z,3.67
2023-01-12T14:00:30.726Z,3.72
2023-01-12T14:05:50.210Z,5.60
2023-01-12T14:11:19.349Z,5.25
2023-01-12T14:16:23.562Z,4.47
2023-01-12T14:21:29.231Z,3.43
2023-01-12T14:26:35.722Z,3.25
2023-01-12T14:31:42.635Z,7.80
2023-01-12T14:36:46.574Z,2.65
2023-01-12T14:41:53.836Z,3.33
2023-01-12T14:46:56.504Z,3.30
2023-01-12T14:52:00.838Z,3.78
2023-01-12T14:57:09.296Z,4.60
2023-01-12T15:02:33.140Z,3.63
2023-01-12T15:07:39.545Z,3.70
2023-01-12T15:12:57.004Z,3.37
2023-01-12T15:17:59.317Z,3.58
2023-01-12T15:23:01.470Z,3.60
2023-01-12T15:28:07.675Z,4.53
2023-01-12T15:33:09.846Z,4.10
2023-01-12T15:38:14.367Z,3.83
2023-01-12T15:43:18.474Z,4.83
2023-01-12T15:48:20.739Z,3.78
2023-01-12T15:53:23.633Z,3.90
2023-01-12T15:58:27.203Z,3.70
2023-01-12T16:08:51.604Z,4.87
2023-01-12T16:13:55.306Z,4.97
2023-01-12T16:18:57.475Z,4.40
2023-01-12T16:24:00.864Z,4.10
2023-01-12T16:29:04.424Z,4.40
2023-01-12T16:34:06.879Z,4.40
2023-01-12T16:39:12.096Z,4.05
2023-01-12T16:44:15.792Z,3.97
2023-01-12T16:49:18.125Z,3.57
2023-01-12T16:54:20.508Z,4.38
2023-01-12T16:59:24.251Z,4.57
2023-01-12T17:04:26.537Z,4.18
2023-01-12T17:09:29.009Z,5.07
2023-01-12T17:14:33.834Z,4.00
2023-01-12T17:19:39.902Z,3.88
2023-01-12T17:24:42.196Z,5.00
2023-01-12T17:29:47.806Z,4.20
2023-01-12T17:34:50.136Z,4.00
2023-01-12T17:39:52.382Z,4.20
2023-01-12T17:44:55.999Z,4.30
2023-01-12T17:49:58.516Z,4.10
2023-01-12T17:55:00.810Z,4.18
2023-01-12T18:00:07.467Z,4.50
2023-01-12T18:05:15.139Z,5.37
2023-01-12T18:10:18.009Z,5.32
2023-01-12T18:15:21.516Z,4.72
2023-01-12T18:20:24.035Z,4.90
2023-01-12T18:25:26.208Z,4.43
2023-01-12T18:30:29.742Z,4.13
2023-01-12T18:35:35.966Z,4.35
2023-01-12T18:40:38.165Z,4.22
2023-01-12T18:45:41.870Z,4.20
2023-01-12T18:50:44.094Z,4.93
2023-01-12T18:55:46.521Z,5.03
2023-01-12T19:00:50.114Z,3.85
2023-01-12T19:05:52.332Z,5.03
2023-01-12T19:10:54.772Z,5.00
2023-01-12T19:15:59.743Z,5.55
2023-01-12T19:21:02.212Z,5.30
2023-01-12T19:26:05.235Z,4.97
2023-01-12T19:31:11.491Z,4.32
2023-01-12T19:36:15.134Z,4.80
2023-01-12T19:41:17.384Z,5.07
2023-01-12T19:46:20.940Z,5.82
2023-01-12T19:51:23.772Z,4.50
2023-01-12T19:56:25.952Z,4.72
2023-01-12T20:01:29.574Z,5.37
2023-01-12T20:06:31.815Z,4.87
2023-01-12T20:11:33.996Z,5.20
2023-01-12T20:16:37.629Z,4.20
2023-01-12T20:21:39.809Z,5.63
2023-01-12T20:26:42.721Z,4.70
2023-01-12T20:31:47.082Z,4.63
2023-01-12T20:36:49.824Z,5.40
2023-01-12T20:41:52.527Z,5.80
2023-01-12T20:46:56.202Z,5.10
2023-01-12T20:51:59.027Z,4.30
2023-01-12T20:57:01.581Z,5.70
2023-01-12T21:02:05.855Z,5.07
2023-01-12T21:07:08.170Z,5.03
2023-01-12T21:12:11.362Z,4.18
2023-01-12T21:17:15.062Z,4.53
2023-01-12T21:22:17.370Z,5.53
2023-01-12T21:27:19.653Z,4.60
2023-01-12T21:32:23.376Z,4.20
2023-01-12T21:37:25.727Z,3.90
2023-01-12T21:42:28.944Z,4.63
2023-01-12T21:47:32.795Z,4.10
2023-01-12T21:52:35.183Z,4.30
2023-01-12T21:57:37.619Z,3.97
2023-01-12T22:02:41.382Z,4.97
2023-01-12T22:07:43.739Z,5.60
2023-01-12T22:12:46.553Z,4.40
2023-01-12T22:17:50.892Z,4.60
2023-01-12T22:22:54.261Z,3.33
2023-01-12T22:27:57.145Z,4.28
2023-01-12T22:33:00.820Z,3.88
2023-01-12T22:38:03.067Z,3.77
2023-01-12T22:43:05.299Z,3.70
2023-01-12T22:48:08.967Z,4.07
2023-01-12T22:53:11.167Z,2.92
2023-01-12T22:58:13.355Z,4.20
2023-01-12T23:03:16.943Z,3.97
2023-01-12T23:08:19.208Z,3.60
2023-01-12T23:13:22.574Z,3.50
2023-01-12T23:18:29.101Z,2.85
2023-01-12T23:23:31.699Z,4.22
2023-01-12T23:28:34.008Z,3.93
2023-01-12T23:33:38.893Z,3.15
2023-01-12T23:38:41.137Z,3.70
2023-01-12T23:43:43.477Z,3.45
2023-01-12T23:48:47.178Z,3.25
2023-01-12T23:53:51.924Z,3.97
2023-01-12T23:58:54.220Z,3.65
